Time;durP1;ratioP1;P1;durP2;ratioP2;P2;SDS_P1;SDS_P2;PMS_P1;PMS_P2;Temp;Humidity;BMP_temperature;BMP_pressure;BME280_temperature;BME280_humidity;BME280_pressure;Samples;Min_cycle;Max_cycle;Signal;HPM_P1;HPM_P2
2022/10/27 00:00:27;;;;;;;5.88;4.85;;;10.90;99.90;;;;;;5072739;28;20200;-62
2022/10/27 00:02:55;;;;;;;7.85;4.57;;;11.00;99.90;;;;;;5071989;28;20674;-63
2022/10/27 00:05:42;;;;;;;7.85;3.97;;;10.90;99.90;;;;;;5070644;28;20310;-63
2022/10/27 00:08:15;;;;;;;5.38;4.38;;;10.90;99.90;;;;;;5059414;28;20601;-64
2022/10/27 00:10:44;;;;;;;5.97;4.00;;;10.90;99.90;;;;;;5073289;28;20568;-63
2022/10/27 00:13:13;;;;;;;6.45;4.28;;;10.90;99.90;;;;;;5072004;28;20621;-63
2022/10/27 00:15:41;;;;;;;7.00;4.35;;;10.90;99.90;;;;;;5056299;28;20207;-63
2022/10/27 00:18:11;;;;;;;7.95;3.90;;;10.90;99.90;;;;;;5054509;28;20208;-64
2022/10/27 00:20:39;;;;;;;5.00;4.60;;;10.80;99.90;;;;;;5067665;28;20669;-63
2022/10/27 00:23:07;;;;;;;6.95;5.15;;;10.80;99.90;;;;;;5068492;28;20201;-64
2022/10/27 00:25:36;;;;;;;5.88;4.80;;;10.80;99.90;;;;;;5065264;28;20196;-63
2022/10/27 00:28:04;;;;;;;17.73;4.40;;;10.80;99.90;;;;;;5069765;28;20223;-63
2022/10/27 00:30:32;;;;;;;4.90;4.45;;;10.80;99.90;;;;;;5071853;28;20208;-63
2022/10/27 00:33:00;;;;;;;4.78;4.30;;;10.80;99.90;;;;;;5072778;28;20204;-63
2022/10/27 00:35:28;;;;;;;6.03;3.83;;;10.90;99.90;;;;;;5069439;28;20191;-63
2022/10/27 00:37:56;;;;;;;5.68;4.43;;;10.80;99.90;;;;;;5065623;28;20533;-63
2022/10/27 00:40:24;;;;;;;6.88;5.07;;;10.80;99.90;;;;;;5051688;28;20196;-63
2022/10/27 00:43:28;;;;;;;9.30;5.22;;;10.70;99.90;;;;;;5052545;28;20254;-63
2022/10/27 00:46:00;;;;;;;5.00;4.10;;;10.70;99.90;;;;;;5052308;28;20192;-63
2022/10/27 00:48:30;;;;;;;11.73;4.28;;;10.70;99.90;;;;;;5068705;28;20674;-63
2022/10/27 00:51:02;;;;;;;4.40;4.00;;;10.70;99.90;;;;;;5053290;28;20243;-63
2022/10/27 00:53:31;;;;;;;6.88;4.35;;;10.70;99.90;;;;;;5052555;28;20595;-63
2022/10/27 00:55:59;;;;;;;9.25;4.57;;;10.60;99.90;;;;;;5052263;28;20678;-63
2022/10/27 00:58:29;;;;;;;4.80;3.80;;;10.50;99.90;;;;;;5052635;28;20196;-63
2022/10/27 01:00:58;;;;;;;6.55;4.63;;;10.40;99.90;;;;;;5051813;28;20188;-63
2022/10/27 01:03:26;;;;;;;8.32;4.38;;;10.40;99.90;;;;;;5051068;28;20663;-63
2022/10/27 01:05:56;;;;;;;9.98;4.13;;;10.40;99.90;;;;;;5053278;28;20608;-63
2022/10/27 01:08:25;;;;;;;8.50;4.70;;;10.40;99.90;;;;;;5071806;28;20205;-63
2022/10/27 01:10:53;;;;;;;7.28;4.70;;;10.40;99.90;;;;;;5072178;28;20618;-63
2022/10/27 01:13:21;;;;;;;4.85;4.45;;;10.40;99.90;;;;;;5070609;28;20214;-63
2022/10/27 01:16:01;;;;;;;14.00;5.07;;;10.40;99.90;;;;;;5053622;28;20713;-63
2022/10/27 01:18:36;;;;;;;7.53;4.57;;;10.30;99.90;;;;;;5052880;28;20560;-63
2022/10/27 01:21:41;;;;;;;8.52;5.10;;;10.30;99.90;;;;;;5063060;28;20196;-63
2022/10/27 01:24:44;;;;;;;12.15;4.85;;;10.30;99.90;;;;;;5040560;28;20205;-63
2022/10/27 01:27:30;;;;;;;6.55;4.25;;;10.20;99.90;;;;;;5029823;28;20211;-63
2022/10/27 01:30:07;;;;;;;5.72;5.03;;;10.10;99.90;;;;;;5070030;28;20219;-63
2022/10/27 01:32:46;;;;;;;5.97;4.93;;;10.10;99.90;;;;;;5072364;28;20188;-63
2022/10/27 01:35:20;;;;;;;8.23;4.43;;;10.10;99.90;;;;;;5070545;28;20184;-63
2022/10/27 01:37:55;;;;;;;10.20;5.20;;;10.10;99.90;;;;;;5059403;28;20600;-63
2022/10/27 01:40:28;;;;;;;6.13;4.90;;;10.10;99.90;;;;;;5050327;28;20192;-63
2022/10/27 01:43:01;;;;;;;9.07;5.13;;;10.00;99.90;;;;;;5051918;28;20562;-63
2022/10/27 01:45:32;;;;;;;6.97;5.53;;;10.00;99.90;;;;;;5051637;28;20193;-63
2022/10/27 01:48:04;;;;;;;7.63;5.53;;;10.00;99.90;;;;;;5052011;28;20184;-63
2022/10/27 01:50:35;;;;;;;10.40;5.00;;;10.10;99.90;;;;;;5051709;28;20249;-63
2022/10/27 01:53:04;;;;;;;6.55;4.97;;;10.10;99.90;;;;;;5061041;28;20296;-63
2022/10/27 01:55:40;;;;;;;9.35;5.50;;;10.10;99.90;;;;;;5052358;28;20224;-63
2022/10/27 01:58:35;;;;;;;9.38;5.00;;;10.20;99.90;;;;;;5050917;28;20212;-63
2022/10/27 02:01:14;;;;;;;6.05;4.63;;;10.30;99.90;;;;;;5051630;28;20185;-63
2022/10/27 02:03:48;;;;;;;5.03;4.63;;;10.20;99.90;;;;;;5065805;28;20202;-63
2022/10/27 02:06:25;;;;;;;11.88;5.22;;;10.30;99.90;;;;;;5063394;28;20260;-63
2022/10/27 02:08:58;;;;;;;8.10;5.35;;;10.20;99.90;;;;;;5050134;28;20213;-64
2022/10/27 02:11:28;;;;;;;5.82;4.20;;;10.20;99.90;;;;;;5061745;28;20195;-63
2022/10/27 02:13:58;;;;;;;9.27;4.90;;;10.20;99.90;;;;;;5070185;28;20202;-63
2022/10/27 02:16:30;;;;;;;7.10;5.05;;;10.20;99.90;;;;;;5072120;28;20207;-63
2022/10/27 02:19:03;;;;;;;5.78;4.35;;;10.20;99.90;;;;;;5068464;28;20578;-64
2022/10/27 02:21:34;;;;;;;6.35;4.38;;;10.30;99.90;;;;;;5062403;28;20200;-64
2022/10/27 02:24:02;;;;;;;5.13;4.72;;;10.40;99.90;;;;;;5062273;28;20208;-64
2022/10/27 02:26:35;;;;;;;7.65;5.15;;;10.40;99.90;;;;;;5055762;28;20200;-64
2022/10/27 02:29:06;;;;;;;5.57;4.85;;;10.40;99.90;;;;;;5050660;28;20209;-64
2022/10/27 02:31:37;;;;;;;5.20;4.70;;;10.40;99.90;;;;;;5051823;28;20197;-64
2022/10/27 02:34:07;;;;;;;8.02;4.50;;;10.30;99.90;;;;;;5051099;28;20189;-64
2022/10/27 02:36:36;;;;;;;8.18;4.95;;;10.20;99.90;;;;;;5051913;28;20193;-62
2022/10/27 02:39:04;;;;;;;7.75;4.78;;;10.10;99.90;;;;;;5051057;28;20185;-64
2022/10/27 02:41:32;;;;;;;7.13;5.05;;;10.00;99.90;;;;;;5051910;28;20208;-64
2022/10/27 02:44:00;;;;;;;5.35;4.72;;;10.00;99.90;;;;;;5057465;28;20200;-64
2022/10/27 02:46:28;;;;;;;8.15;4.90;;;10.00;99.90;;;;;;5071241;28;20196;-65
2022/10/27 02:48:56;;;;;;;10.52;4.90;;;10.00;99.90;;;;;;5066091;28;20220;-64
2022/10/27 02:51:26;;;;;;;5.70;5.05;;;10.00;99.90;;;;;;5070514;28;20206;-64
2022/10/27 02:53:54;;;;;;;9.13;4.97;;;10.00;99.90;;;;;;5074960;28;20224;-64
2022/10/27 02:56:22;;;;;;;6.35;5.38;;;10.10;99.90;;;;;;5075305;28;20226;-64
2022/10/27 02:58:50;;;;;;;11.52;5.55;;;10.10;99.90;;;;;;5070406;28;20261;-64
2022/10/27 03:01:18;;;;;;;7.65;4.97;;;10.10;99.90;;;;;;5071390;28;20231;-64
2022/10/27 03:03:46;;;;;;;7.45;5.00;;;10.20;99.90;;;;;;5062931;28;20215;-64
2022/10/27 03:06:14;;;;;;;9.32;5.30;;;10.20;99.90;;;;;;5060847;28;20208;-64
2022/10/27 03:08:43;;;;;;;8.00;4.80;;;10.30;99.90;;;;;;5073429;28;20200;-64
2022/10/27 03:11:11;;;;;;;5.50;4.50;;;10.30;99.90;;;;;;5071290;28;20199;-64
2022/10/27 03:13:39;;;;;;;7.65;4.88;;;10.20;99.90;;;;;;5074071;28;20658;-64
2022/10/27 03:16:08;;;;;;;7.18;4.32;;;10.20;99.90;;;;;;5057972;28;20580;-63
2022/10/27 03:18:36;;;;;;;8.77;4.55;;;10.10;99.90;;;;;;5053994;28;20572;-63
2022/10/27 03:21:04;;;;;;;7.90;4.10;;;10.10;99.90;;;;;;5065631;28;20606;-63
2022/10/27 03:23:32;;;;;;;6.15;5.55;;;10.10;99.90;;;;;;5056717;28;20192;-63
2022/10/27 03:26:01;;;;;;;5.13;4.50;;;10.10;99.90;;;;;;5064001;28;20600;-63
2022/10/27 03:28:34;;;;;;;4.97;4.57;;;10.00;99.90;;;;;;5065184;28;20647;-63
2022/10/27 03:31:02;;;;;;;6.30;4.22;;;10.10;99.90;;;;;;5071683;28;20682;-63
2022/10/27 03:33:30;;;;;;;6.47;5.22;;;10.00;99.90;;;;;;5073638;28;20204;-64
2022/10/27 03:35:58;;;;;;;4.90;4.40;;;10.10;99.90;;;;;;5071288;28;20303;-64
2022/10/27 03:38:26;;;;;;;11.57;4.88;;;10.10;99.90;;;;;;5073810;28;20200;-64
2022/10/27 03:40:54;;;;;;;8.00;5.40;;;10.10;99.90;;;;;;5073220;28;20200;-63
2022/10/27 03:43:23;;;;;;;7.63;6.03;;;10.20;99.90;;;;;;5072108;28;20273;-63
2022/10/27 03:45:52;;;;;;;7.18;5.90;;;10.30;99.90;;;;;;5072604;28;20200;-63
2022/10/27 03:48:20;;;;;;;8.20;6.60;;;10.40;99.90;;;;;;5073466;28;20212;-63
2022/10/27 03:50:51;;;;;;;10.38;5.40;;;10.40;99.90;;;;;;5070519;28;20638;-63
2022/10/27 03:53:19;;;;;;;10.88;5.25;;;10.30;99.90;;;;;;5064018;28;20832;-63
2022/10/27 03:55:47;;;;;;;12.30;5.47;;;10.30;99.90;;;;;;5072776;28;20200;-63
2022/10/27 03:58:17;;;;;;;9.25;5.47;;;10.30;99.90;;;;;;5072134;28;20216;-63
2022/10/27 04:00:46;;;;;;;5.97;5.32;;;10.20;99.90;;;;;;5061883;28;20247;-63
2022/10/27 04:03:15;;;;;;;7.22;5.07;;;10.10;99.90;;;;;;5052319;28;20197;-63
2022/10/27 04:05:42;;;;;;;8.93;5.00;;;10.00;99.90;;;;;;5052947;28;20201;-63
2022/10/27 04:08:10;;;;;;;11.55;5.20;;;10.00;99.90;;;;;;5056347;28;20211;-63
2022/10/27 04:10:38;;;;;;;15.43;5.78;;;10.00;99.90;;;;;;5053269;28;20599;-63
2022/10/27 04:13:06;;;;;;;7.53;5.07;;;10.00;99.90;;;;;;5053098;28;20193;-63
2022/10/27 04:15:35;;;;;;;8.50;4.68;;;10.00;99.90;;;;;;5063866;28;20196;-63
2022/10/27 04:18:05;;;;;;;6.93;4.53;;;10.00;99.90;;;;;;5072614;28;20200;-64
2022/10/27 04:20:33;;;;;;;9.80;5.53;;;10.00;99.90;;;;;;5072434;28;20196;-64
2022/10/27 04:23:01;;;;;;;13.18;5.43;;;10.00;99.90;;;;;;5060869;28;20642;-64
2022/10/27 04:25:29;;;;;;;6.60;4.65;;;10.00;99.90;;;;;;5073089;28;20199;-64
2022/10/27 04:28:05;;;;;;;4.95;4.55;;;9.90;99.90;;;;;;5071357;28;20215;-64
2022/10/27 04:30:33;;;;;;;7.53;4.38;;;9.90;99.90;;;;;;5052944;28;20211;-64
2022/10/27 04:33:01;;;;;;;7.82;6.07;;;9.90;99.90;;;;;;5056927;28;20188;-64
2022/10/27 04:35:31;;;;;;;8.30;5.55;;;9.90;99.90;;;;;;5064139;28;20675;-64
2022/10/27 04:37:58;;;;;;;5.32;4.80;;;10.00;99.90;;;;;;5064395;28;20212;-64
2022/10/27 04:40:26;;;;;;;9.52;6.50;;;10.00;99.90;;;;;;5072084;28;20199;-64
2022/10/27 04:42:55;;;;;;;7.68;6.85;;;10.10;99.90;;;;;;5072724;28;20203;-64
2022/10/27 04:45:23;;;;;;;11.50;8.10;;;10.10;99.90;;;;;;5055107;28;20207;-64
2022/10/27 04:47:51;;;;;;;10.68;7.63;;;10.20;99.90;;;;;;5063602;28;20196;-64
2022/10/27 04:50:19;;;;;;;8.27;6.10;;;10.20;99.90;;;;;;5052239;28;20232;-64
2022/10/27 04:52:56;;;;;;;7.60;6.95;;;10.10;99.90;;;;;;5066902;28;20227;-65
2022/10/27 04:55:25;;;;;;;6.45;5.82;;;10.00;99.90;;;;;;5071207;28;20609;-64
2022/10/27 04:57:53;;;;;;;9.43;5.70;;;10.00;99.90;;;;;;5060665;28;20699;-64
2022/10/27 05:00:22;;;;;;;15.43;6.05;;;9.80;99.90;;;;;;5067424;28;20188;-64
2022/10/27 05:02:53;;;;;;;12.80;6.50;;;9.80;99.90;;;;;;5051414;28;20208;-64
2022/10/27 05:05:22;;;;;;;11.93;6.18;;;9.80;99.90;;;;;;5050615;28;20205;-64
2022/10/27 05:07:52;;;;;;;10.85;7.03;;;9.80;99.90;;;;;;5052860;28;20200;-64
2022/10/27 05:10:24;;;;;;;7.50;5.85;;;9.80;99.90;;;;;;5050988;28;20216;-64
2022/10/27 05:12:53;;;;;;;10.55;6.30;;;9.80;99.90;;;;;;5058283;28;20218;-65
2022/10/27 05:15:21;;;;;;;10.68;6.05;;;9.80;99.90;;;;;;5057408;28;20245;-65
2022/10/27 05:17:50;;;;;;;13.82;6.78;;;9.80;99.90;;;;;;5070955;28;20647;-64
2022/10/27 05:20:18;;;;;;;9.77;6.47;;;9.80;99.90;;;;;;5069221;28;20239;-64
2022/10/27 05:22:46;;;;;;;8.43;6.70;;;9.80;99.90;;;;;;5067520;28;20201;-65
2022/10/27 05:25:15;;;;;;;11.65;6.30;;;9.90;99.90;;;;;;5060210;28;20197;-65
2022/10/27 05:27:44;;;;;;;10.90;8.25;;;9.90;99.90;;;;;;5054726;28;20200;-64
2022/10/27 05:30:13;;;;;;;10.88;8.40;;;10.00;99.90;;;;;;5069693;28;20223;-64
2022/10/27 05:32:41;;;;;;;15.07;7.57;;;10.00;99.90;;;;;;5070697;28;20203;-66
2022/10/27 05:35:09;;;;;;;12.00;8.02;;;10.00;99.90;;;;;;5072034;28;20195;-64
2022/10/27 05:37:42;;;;;;;12.98;7.53;;;10.00;99.90;;;;;;5058038;28;20338;-64
2022/10/27 05:40:11;;;;;;;12.75;8.50;;;10.10;99.90;;;;;;5071385;28;20259;-64
2022/10/27 05:42:39;;;;;;;15.02;10.80;;;10.00;99.90;;;;;;5073786;28;20203;-64
2022/10/27 05:45:09;;;;;;;15.43;9.93;;;10.10;99.90;;;;;;5067263;28;20206;-64
2022/10/27 05:47:37;;;;;;;11.65;10.45;;;10.10;99.90;;;;;;5072115;28;20546;-64
2022/10/27 05:50:06;;;;;;;13.57;9.75;;;10.10;99.90;;;;;;5060747;28;20208;-64
2022/10/27 05:52:34;;;;;;;22.05;12.32;;;10.10;99.90;;;;;;5052353;28;20592;-64
2022/10/27 05:55:02;;;;;;;17.33;10.38;;;10.20;99.90;;;;;;5058449;28;20561;-64
2022/10/27 05:57:31;;;;;;;20.73;12.10;;;10.10;99.90;;;;;;5067620;28;21138;-68
2022/10/27 06:00:01;;;;;;;26.90;13.82;;;10.00;99.90;;;;;;5063331;28;20196;-67
2022/10/27 06:02:33;;;;;;;11.50;9.23;;;10.00;99.90;;;;;;5061367;28;20638;-65
2022/10/27 06:05:01;;;;;;;16.48;9.10;;;9.90;99.90;;;;;;5065100;28;20204;-64
2022/10/27 06:07:29;;;;;;;13.95;8.85;;;9.90;99.90;;;;;;5062007;28;20196;-63
2022/10/27 06:09:57;;;;;;;19.38;10.98;;;10.00;99.90;;;;;;5051215;28;20557;-63
2022/10/27 06:12:25;;;;;;;16.40;12.82;;;10.00;99.90;;;;;;5051845;28;20209;-64
2022/10/27 06:14:53;;;;;;;18.38;12.77;;;10.20;99.90;;;;;;5070467;28;20662;-63
2022/10/27 06:17:21;;;;;;;25.95;12.35;;;10.40;99.90;;;;;;5070674;28;20223;-63
2022/10/27 06:19:50;;;;;;;21.13;11.30;;;10.50;99.90;;;;;;5070315;28;20282;-63
2022/10/27 06:22:18;;;;;;;20.02;12.50;;;10.60;99.90;;;;;;5064875;28;20197;-63
2022/10/27 06:24:46;;;;;;;16.63;12.40;;;10.60;99.90;;;;;;5062830;28;20204;-63
2022/10/27 06:27:14;;;;;;;23.48;12.68;;;10.60;99.90;;;;;;5062761;28;20261;-64
2022/10/27 06:29:42;;;;;;;19.55;12.18;;;10.70;99.90;;;;;;5065163;28;20205;-64
2022/10/27 06:32:10;;;;;;;13.80;9.70;;;10.60;99.90;;;;;;5059814;28;20230;-64
2022/10/27 06:34:38;;;;;;;13.75;9.50;;;10.40;99.90;;;;;;5062954;28;20200;-64
2022/10/27 06:37:07;;;;;;;12.63;10.30;;;10.40;99.90;;;;;;5055276;28;20736;-65
2022/10/27 06:39:35;;;;;;;15.77;9.70;;;10.30;99.90;;;;;;5053438;28;20212;-64
2022/10/27 06:42:03;;;;;;;18.50;9.95;;;10.40;99.90;;;;;;5057615;28;20196;-65
2022/10/27 06:44:31;;;;;;;10.40;9.43;;;10.40;99.90;;;;;;5072112;28;20222;-64
2022/10/27 06:47:01;;;;;;;18.17;9.27;;;10.40;99.90;;;;;;5056215;28;20224;-65
2022/10/27 06:49:29;;;;;;;10.20;8.50;;;10.40;99.90;;;;;;5054169;28;20205;-64
2022/10/27 06:51:59;;;;;;;9.20;8.30;;;10.30;99.90;;;;;;5056394;28;20225;-65
2022/10/27 06:54:28;;;;;;;8.88;7.97;;;10.30;99.90;;;;;;5055244;28;20215;-65
2022/10/27 06:56:56;;;;;;;14.23;9.27;;;10.40;99.90;;;;;;5054155;28;20730;-63
2022/10/27 06:59:24;;;;;;;8.98;8.10;;;10.40;99.90;;;;;;5054269;28;20208;-63
2022/10/27 07:01:52;;;;;;;13.43;9.40;;;10.50;99.90;;;;;;5053982;28;20613;-63
2022/10/27 07:04:21;;;;;;;22.52;9.57;;;10.50;99.90;;;;;;5054479;28;20204;-63
2022/10/27 07:06:48;;;;;;;11.00;9.55;;;10.60;99.90;;;;;;5055272;28;20205;-64
2022/10/27 07:09:17;;;;;;;17.42;9.05;;;10.70;99.90;;;;;;5058777;28;20415;-64
2022/10/27 07:11:46;;;;;;;9.35;8.55;;;10.80;99.90;;;;;;5056763;28;20224;-64
2022/10/27 07:14:14;;;;;;;11.45;7.93;;;10.90;99.90;;;;;;5056507;28;20204;-63
2022/10/27 07:16:42;;;;;;;12.13;7.75;;;10.80;99.90;;;;;;5055993;28;20212;-63
2022/10/27 07:19:10;;;;;;;10.48;8.27;;;10.90;99.90;;;;;;5055550;28;20209;-63
2022/10/27 07:21:38;;;;;;;8.40;7.60;;;10.90;99.90;;;;;;5055795;28;20197;-64
2022/10/27 07:24:07;;;;;;;11.82;9.43;;;11.00;99.90;;;;;;5075328;28;20677;-64
2022/10/27 07:26:35;;;;;;;16.20;9.40;;;11.10;99.90;;;;;;5077282;28;20204;-64
2022/10/27 07:29:04;;;;;;;13.07;10.40;;;11.30;99.90;;;;;;5078089;28;20211;-63
2022/10/27 07:31:32;;;;;;;12.25;10.07;;;11.40;99.90;;;;;;5075333;28;20246;-64
2022/10/27 07:34:00;;;;;;;13.32;9.68;;;11.60;99.90;;;;;;5068836;28;20205;-64
2022/10/27 07:36:28;;;;;;;23.00;12.18;;;11.80;99.90;;;;;;5065350;28;20742;-64
2022/10/27 07:38:56;;;;;;;26.03;11.63;;;11.90;99.90;;;;;;5071988;28;20658;-63
2022/10/27 07:41:24;;;;;;;16.00;11.27;;;12.10;99.90;;;;;;5069120;28;20652;-64
2022/10/27 07:43:52;;;;;;;16.30;11.80;;;12.20;99.90;;;;;;5072788;28;20596;-63
2022/10/27 07:46:21;;;;;;;20.20;11.47;;;12.30;99.90;;;;;;5070208;28;20590;-63
2022/10/27 07:48:49;;;;;;;14.37;11.33;;;12.40;99.90;;;;;;5052280;28;20829;-64
2022/10/27 07:51:17;;;;;;;19.45;11.23;;;12.50;99.90;;;;;;5053105;28;20582;-64
2022/10/27 07:53:45;;;;;;;17.40;12.47;;;12.50;99.90;;;;;;5060843;28;20239;-66
2022/10/27 07:56:13;;;;;;;24.13;12.00;;;12.60;99.90;;;;;;5072750;28;20604;-66
2022/10/27 07:58:41;;;;;;;16.00;10.70;;;12.60;99.90;;;;;;5071831;28;20596;-64
2022/10/27 08:01:09;;;;;;;26.30;12.30;;;12.70;99.90;;;;;;5068086;28;20601;-64
2022/10/27 08:03:39;;;;;;;22.50;13.10;;;12.70;99.90;;;;;;5066232;28;21062;-64
2022/10/27 08:06:07;;;;;;;14.97;12.63;;;12.60;99.90;;;;;;5064247;28;20604;-64
2022/10/27 08:08:35;;;;;;;13.50;11.07;;;12.70;99.90;;;;;;5072249;28;20638;-63
2022/10/27 08:11:03;;;;;;;23.80;12.93;;;12.80;99.90;;;;;;5060562;28;20630;-63
2022/10/27 08:13:31;;;;;;;19.58;11.75;;;12.70;99.90;;;;;;5072108;28;20632;-63
2022/10/27 08:15:59;;;;;;;17.10;12.70;;;12.70;99.90;;;;;;5064224;28;20197;-64
2022/10/27 08:18:27;;;;;;;15.50;13.10;;;12.80;99.90;;;;;;5064473;28;21250;-64
2022/10/27 08:20:56;;;;;;;15.47;11.90;;;12.90;99.90;;;;;;5068245;28;20635;-64
2022/10/27 08:23:24;;;;;;;18.33;11.50;;;13.10;99.90;;;;;;5061985;28;20671;-64
2022/10/27 08:25:53;;;;;;;53.40;28.37;;;13.30;99.90;;;;;;5065348;28;20199;-64
2022/10/27 08:28:23;;;;;;;20.97;13.57;;;13.40;99.90;;;;;;5071616;28;20693;-64
2022/10/27 08:30:52;;;;;;;35.73;14.60;;;13.40;99.90;;;;;;5066875;28;20619;-64
2022/10/27 08:33:20;;;;;;;19.40;12.63;;;13.50;99.90;;;;;;5052198;28;20637;-64
2022/10/27 08:35:49;;;;;;;15.10;11.60;;;13.50;99.90;;;;;;5058442;28;20598;-64
2022/10/27 08:38:21;;;;;;;19.77;11.20;;;13.50;99.90;;;;;;5066761;28;20593;-64
2022/10/27 08:41:02;;;;;;;13.07;10.27;;;13.60;99.90;;;;;;5071556;28;20602;-64
2022/10/27 08:43:50;;;;;;;21.40;12.67;;;13.50;99.90;;;;;;5071296;28;20609;-64
2022/10/27 08:46:25;;;;;;;29.13;16.30;;;13.60;99.90;;;;;;5058571;28;21196;-64
2022/10/27 08:48:55;;;;;;;12.13;10.00;;;13.80;99.90;;;;;;5064107;28;20584;-64
2022/10/27 08:51:25;;;;;;;16.30;9.40;;;13.60;99.90;;;;;;5071949;28;20590;-65
2022/10/27 08:53:55;;;;;;;11.57;9.17;;;13.70;99.90;;;;;;5061710;28;20646;-65
2022/10/27 08:56:27;;;;;;;13.90;9.10;;;13.70;99.90;;;;;;5065989;28;20638;-66
2022/10/27 08:58:55;;;;;;;13.80;8.80;;;13.90;99.90;;;;;;5072239;28;20665;-66
2022/10/27 09:01:33;;;;;;;10.97;8.03;;;14.10;99.90;;;;;;5064846;28;20609;-65
2022/10/27 09:04:21;;;;;;;10.83;8.17;;;14.00;99.90;;;;;;5060216;28;20654;-66
2022/10/27 09:06:59;;;;;;;18.23;8.80;;;14.00;99.90;;;;;;5064799;28;20594;-66
2022/10/27 09:09:38;;;;;;;16.40;9.03;;;14.00;99.90;;;;;;5075199;28;20552;-66
2022/10/27 09:12:17;;;;;;;13.90;8.23;;;14.00;99.90;;;;;;5073438;28;20633;-66
2022/10/27 09:15:08;;;;;;;17.70;9.30;;;13.90;99.90;;;;;;5073969;28;20614;-66
2022/10/27 09:17:41;;;;;;;16.27;9.00;;;14.10;99.90;;;;;;5054446;28;21209;-66
2022/10/27 09:20:18;;;;;;;33.33;9.37;;;14.20;99.90;;;;;;5054278;28;21152;-65
2022/10/27 09:22:50;;;;;;;17.10;8.90;;;14.20;99.90;;;;;;5056083;28;20627;-66
2022/10/27 09:25:21;;;;;;;9.97;7.77;;;14.10;99.90;;;;;;5066391;28;20580;-66
2022/10/27 09:27:53;;;;;;;20.90;10.40;;;14.30;99.90;;;;;;5079189;28;20565;-65
2022/10/27 09:30:21;;;;;;;26.63;10.00;;;14.50;99.90;;;;;;5101133;28;20651;-65
2022/10/27 09:32:52;;;;;;;16.97;9.30;;;14.70;99.90;;;;;;5089674;28;20662;-65
2022/10/27 09:35:24;;;;;;;11.03;9.93;;;14.80;99.90;;;;;;5063788;28;20673;-66
2022/10/27 09:37:52;;;;;;;16.37;10.33;;;14.70;99.90;;;;;;5061637;28;20565;-65
2022/10/27 09:40:24;;;;;;;15.80;9.47;;;14.60;99.90;;;;;;5073414;28;21154;-65
2022/10/27 09:42:55;;;;;;;9.10;8.30;;;14.40;99.90;;;;;;5070438;28;20613;-65
2022/10/27 09:45:25;;;;;;;15.67;8.70;;;14.60;99.90;;;;;;5066816;28;20809;-64
2022/10/27 09:47:56;;;;;;;11.40;7.93;;;14.70;99.90;;;;;;5068496;28;20626;-65
2022/10/27 09:50:28;;;;;;;11.40;9.73;;;14.70;99.90;;;;;;5071121;28;20795;-64
2022/10/27 09:52:56;;;;;;;13.60;8.20;;;15.00;99.90;;;;;;5070727;28;20658;-65
2022/10/27 09:55:47;;;;;;;11.03;8.47;;;15.20;99.90;;;;;;5071442;28;20625;-65
2022/10/27 09:58:15;;;;;;;13.83;8.07;;;15.30;99.90;;;;;;5075391;28;20623;-65
2022/10/27 10:00:44;;;;;;;25.10;11.20;;;15.40;99.90;;;;;;5066121;28;20597;-65
2022/10/27 10:03:19;;;;;;;10.90;9.80;;;15.50;99.90;;;;;;5054680;28;20652;-64
2022/10/27 10:05:58;;;;;;;32.47;17.23;;;15.70;99.90;;;;;;5070268;28;20637;-64
2022/10/27 10:08:28;;;;;;;22.63;8.80;;;15.40;99.90;;;;;;5063930;28;20610;-64
2022/10/27 10:10:59;;;;;;;13.60;8.70;;;15.40;99.90;;;;;;5054699;28;20607;-65
2022/10/27 10:13:28;;;;;;;14.13;9.07;;;15.50;99.90;;;;;;5059525;28;20707;-65
2022/10/27 10:16:09;;;;;;;16.47;10.60;;;15.70;99.90;;;;;;5060315;28;20615;-65
2022/10/27 10:18:39;;;;;;;8.00;7.20;;;16.00;99.90;;;;;;5052838;28;20590;-65
2022/10/27 10:21:10;;;;;;;23.67;11.30;;;16.10;99.90;;;;;;5068766;28;20988;-66
2022/10/27 10:23:52;;;;;;;22.90;12.30;;;16.20;99.90;;;;;;5074440;28;20946;-65
2022/10/27 10:26:24;;;;;;;11.93;7.50;;;16.10;99.90;;;;;;5071560;28;20576;-65
2022/10/27 10:28:55;;;;;;;14.10;8.30;;;16.10;99.90;;;;;;5054261;28;21128;-66
2022/10/27 10:31:26;;;;;;;13.27;8.23;;;16.40;99.90;;;;;;5071894;28;20626;-67
2022/10/27 10:34:02;;;;;;;8.07;7.23;;;16.20;99.90;;;;;;5070048;28;20638;-66
2022/10/27 10:36:35;;;;;;;8.23;7.10;;;16.40;99.90;;;;;;5072578;28;21684;-65
2022/10/27 10:39:04;;;;;;;11.57;7.87;;;16.70;99.90;;;;;;5067848;28;21183;-65
2022/10/27 10:41:33;;;;;;;10.23;6.80;;;17.10;99.90;;;;;;5066112;28;20611;-63
2022/10/27 10:44:12;;;;;;;16.57;6.43;;;17.50;99.90;;;;;;5071595;28;20629;-66
2022/10/27 10:46:49;;;;;;;11.83;7.00;;;18.00;99.90;;;;;;5065353;28;20605;-66
2022/10/27 10:49:20;;;;;;;17.43;6.23;;;18.30;99.90;;;;;;5068472;28;20625;-63
2022/10/27 10:51:52;;;;;;;14.63;6.23;;;19.00;99.90;;;;;;5070429;28;20642;-64
2022/10/27 10:54:25;;;;;;;9.43;6.53;;;18.90;99.90;;;;;;5052636;28;20647;-66
2022/10/27 10:56:55;;;;;;;8.00;6.20;;;18.60;99.90;;;;;;5052426;28;20639;-66
2022/10/27 10:59:28;;;;;;;9.57;5.67;;;18.80;99.90;;;;;;5056541;28;20615;-65
2022/10/27 11:02:05;;;;;;;9.43;5.47;;;18.60;99.90;;;;;;5062607;28;21037;-65
2022/10/27 11:04:41;;;;;;;9.17;6.57;;;18.90;99.90;;;;;;5069650;28;20610;-65
2022/10/27 11:07:19;;;;;;;8.80;5.10;;;18.90;99.90;;;;;;5067018;28;20952;-65
2022/10/27 11:09:52;;;;;;;9.83;7.03;;;18.80;99.90;;;;;;5072901;28;20583;-65
2022/10/27 11:12:28;;;;;;;12.70;6.93;;;19.10;99.90;;;;;;5069824;28;20598;-65
2022/10/27 11:14:58;;;;;;;13.20;5.73;;;19.20;99.90;;;;;;5060927;28;20649;-65
2022/10/27 11:17:29;;;;;;;6.20;5.50;;;19.40;99.90;;;;;;5066981;28;20622;-65
2022/10/27 11:19:58;;;;;;;15.17;6.13;;;19.20;99.90;;;;;;5062266;28;20614;-63
2022/10/27 11:22:27;;;;;;;11.67;6.17;;;19.90;99.90;;;;;;5062180;28;21216;-63
2022/10/27 11:25:03;;;;;;;14.57;6.27;;;19.40;99.90;;;;;;5067426;28;20637;-64
2022/10/27 11:27:41;;;;;;;12.33;8.27;;;19.80;99.90;;;;;;5067990;28;20626;-64
2022/10/27 11:30:21;;;;;;;9.63;5.63;;;20.20;99.90;;;;;;5062947;28;20612;-64
2022/10/27 11:32:57;;;;;;;7.80;5.90;;;20.70;99.90;;;;;;5062056;28;20634;-64
2022/10/27 11:35:30;;;;;;;17.97;6.07;;;20.60;99.90;;;;;;5066501;28;20973;-64
2022/10/27 11:38:05;;;;;;;28.03;7.57;;;21.00;99.90;;;;;;5067609;28;20622;-64
2022/10/27 11:40:44;;;;;;;9.67;6.87;;;21.20;99.90;;;;;;5064694;28;20621;-65
2022/10/27 11:43:21;;;;;;;9.00;5.10;;;21.20;99.90;;;;;;5067014;28;21107;-65
2022/10/27 11:45:55;;;;;;;6.13;5.17;;;21.00;99.90;;;;;;5068351;28;20998;-64
2022/10/27 11:48:27;;;;;;;7.33;4.70;;;21.80;99.90;;;;;;5064800;28;20625;-64
2022/10/27 11:51:00;;;;;;;9.90;5.00;;;22.50;99.90;;;;;;5071184;28;20989;-64
2022/10/27 11:53:28;;;;;;;9.00;4.57;;;22.50;99.90;;;;;;5033235;28;1130754;-64
2022/10/27 11:56:16;;;;;;;6.57;4.77;;;22.30;99.90;;;;;;5052943;28;20204;-64
2022/10/27 11:58:56;;;;;;;6.50;5.63;;;21.60;99.90;;;;;;5073374;28;20594;-64
2022/10/27 12:01:36;;;;;;;7.63;5.13;;;21.70;99.90;;;;;;5066732;28;20614;-66
2022/10/27 12:04:18;;;;;;;8.20;5.17;;;22.20;99.90;;;;;;5059427;28;20948;-64
2022/10/27 12:06:54;;;;;;;6.63;5.40;;;22.70;99.90;;;;;;5062206;28;20613;-64
2022/10/27 12:09:33;;;;;;;6.77;4.30;;;22.70;99.90;;;;;;5068416;28;21176;-64
2022/10/27 12:12:07;;;;;;;7.70;4.80;;;22.80;99.90;;;;;;5062603;28;20602;-64
2022/10/27 12:14:47;;;;;;;6.80;4.53;;;23.10;99.90;;;;;;5059630;28;20645;-64
2022/10/27 12:17:21;;;;;;;8.50;4.40;;;23.30;99.90;;;;;;5061791;28;20603;-64
2022/10/27 12:19:51;;;;;;;6.97;4.80;;;23.30;99.90;;;;;;5057061;28;20611;-64
2022/10/27 12:22:25;;;;;;;9.13;4.97;;;23.10;99.90;;;;;;5061172;28;20595;-64
2022/10/27 12:24:59;;;;;;;5.80;4.70;;;22.60;99.90;;;;;;5061590;28;20599;-64
2022/10/27 12:27:31;;;;;;;9.43;4.57;;;23.30;99.90;;;;;;5062837;28;20590;-64
2022/10/27 12:30:08;;;;;;;5.33;4.83;;;22.90;99.90;;;;;;5053561;28;21207;-64
2022/10/27 12:32:41;;;;;;;10.23;4.40;;;23.30;99.90;;;;;;5072884;28;20648;-65
2022/10/27 12:35:16;;;;;;;4.73;4.37;;;23.20;99.90;;;;;;5073154;28;20642;-64
2022/10/27 12:37:51;;;;;;;6.83;4.93;;;24.00;99.90;;;;;;5064935;28;20630;-64
2022/10/27 12:40:28;;;;;;;19.10;6.03;;;24.30;99.90;;;;;;5069634;28;20617;-64
2022/10/27 12:43:06;;;;;;;11.73;5.30;;;24.40;99.90;;;;;;5060607;28;20610;-65
2022/10/27 12:45:54;;;;;;;5.77;5.30;;;24.90;99.90;;;;;;5071751;28;20643;-64
2022/10/27 12:48:29;;;;;;;13.87;5.70;;;24.40;99.90;;;;;;5066562;28;20603;-64
2022/10/27 12:51:08;;;;;;;9.90;4.73;;;24.20;99.90;;;;;;5060765;28;20599;-64
2022/10/27 12:53:44;;;;;;;7.80;5.07;;;23.60;99.90;;;;;;5065533;28;21297;-64
2022/10/27 12:56:31;;;;;;;7.37;4.53;;;23.90;99.90;;;;;;5059747;28;20613;-64
2022/10/27 12:59:10;;;;;;;5.43;4.23;;;24.20;99.90;;;;;;5061069;28;20607;-65
2022/10/27 13:01:48;;;;;;;8.37;4.80;;;24.50;99.90;;;;;;5059865;28;20614;-65